sensor_id;sensor_type;location;lat;lon;timestamp;P1;durP1;ratioP1;P2;durP2;ratioP2
18170;SDS011;9210;48.358;10.902;2022-12-07T00:01:44;16.67;;;9.23;;
18170;SDS011;9210;48.358;10.902;2022-12-07T00:04:14;13.83;;;7.33;;
18170;SDS011;9210;48.358;10.902;2022-12-07T00:06:43;14.33;;;8.27;;
18170;SDS011;9210;48.358;10.902;2022-12-07T00:09:14;12.30;;;7.67;;
18170;SDS011;9210;48.358;10.902;2022-12-07T00:11:43;13.20;;;7.40;;
18170;SDS011;9210;48.358;10.902;2022-12-07T00:14:12;13.73;;;7.97;;
18170;SDS011;9210;48.358;10.902;2022-12-07T00:16:41;18.87;;;8.87;;
18170;SDS011;9210;48.358;10.902;2022-12-07T00:19:10;15.00;;;8.33;;
18170;SDS011;9210;48.358;10.902;2022-12-07T00:21:39;16.03;;;9.00;;
18170;SDS011;9210;48.358;10.902;2022-12-07T00:24:08;15.20;;;8.57;;
18170;SDS011;9210;48.358;10.902;2022-12-07T00:26:42;14.80;;;8.07;;
18170;SDS011;9210;48.358;10.902;2022-12-07T00:29:13;18.23;;;9.93;;
18170;SDS011;9210;48.358;10.902;2022-12-07T00:31:43;16.47;;;8.80;;
18170;SDS011;9210;48.358;10.902;2022-12-07T00:34:13;16.33;;;9.07;;
18170;SDS011;9210;48.358;10.902;2022-12-07T00:36:41;16.03;;;8.07;;
18170;SDS011;9210;48.358;10.902;2022-12-07T00:39:10;14.17;;;8.77;;
18170;SDS011;9210;48.358;10.902;2022-12-07T00:41:38;14.60;;;8.03;;
18170;SDS011;9210;48.358;10.902;2022-12-07T00:44:08;14.90;;;8.60;;
18170;SDS011;9210;48.358;10.902;2022-12-07T00:46:37;13.33;;;7.93;;
18170;SDS011;9210;48.358;10.902;2022-12-07T00:49:05;17.47;;;9.20;;
18170;SDS011;9210;48.358;10.902;2022-12-07T00:51:34;17.50;;;9.07;;
18170;SDS011;9210;48.358;10.902;2022-12-07T00:54:02;17.33;;;9.63;;
18170;SDS011;9210;48.358;10.902;2022-12-07T00:56:30;14.60;;;8.33;;
18170;SDS011;9210;48.358;10.902;2022-12-07T00:59:00;13.70;;;8.60;;
18170;SDS011;9210;48.358;10.902;2022-12-07T01:01:31;13.87;;;8.30;;
18170;SDS011;9210;48.358;10.902;2022-12-07T01:04:00;15.20;;;9.13;;
18170;SDS011;9210;48.358;10.902;2022-12-07T01:06:29;15.67;;;8.63;;
18170;SDS011;9210;48.358;10.902;2022-12-07T01:08:58;16.97;;;9.27;;
18170;SDS011;9210;48.358;10.902;2022-12-07T01:11:27;14.83;;;8.13;;
18170;SDS011;9210;48.358;10.902;2022-12-07T01:13:56;15.10;;;8.57;;
18170;SDS011;9210;48.358;10.902;2022-12-07T01:16:28;14.70;;;8.63;;
18170;SDS011;9210;48.358;10.902;2022-12-07T01:18:58;18.13;;;9.50;;
18170;SDS011;9210;48.358;10.902;2022-12-07T01:21:27;18.43;;;9.47;;
18170;SDS011;9210;48.358;10.902;2022-12-07T01:23:56;15.63;;;9.17;;
18170;SDS011;9210;48.358;10.902;2022-12-07T01:26:25;14.73;;;8.30;;
18170;SDS011;9210;48.358;10.902;2022-12-07T01:28:54;15.20;;;8.50;;
18170;SDS011;9210;48.358;10.902;2022-12-07T01:31:25;17.00;;;8.80;;
18170;SDS011;9210;48.358;10.902;2022-12-07T01:33:55;14.57;;;8.40;;
18170;SDS011;9210;48.358;10.902;2022-12-07T01:36:26;16.10;;;9.20;;
18170;SDS011;9210;48.358;10.902;2022-12-07T01:38:55;13.67;;;7.93;;
18170;SDS011;9210;48.358;10.902;2022-12-07T01:41:24;14.63;;;8.20;;
18170;SDS011;9210;48.358;10.902;2022-12-07T01:46:53;14.73;;;8.53;;
18170;SDS011;9210;48.358;10.902;2022-12-07T01:49:23;15.10;;;8.97;;
18170;SDS011;9210;48.358;10.902;2022-12-07T01:51:56;18.63;;;9.67;;
18170;SDS011;9210;48.358;10.902;2022-12-07T01:54:25;15.80;;;9.33;;
18170;SDS011;9210;48.358;10.902;2022-12-07T01:56:54;13.50;;;8.03;;
18170;SDS011;9210;48.358;10.902;2022-12-07T01:59:25;14.00;;;8.10;;
18170;SDS011;9210;48.358;10.902;2022-12-07T02:01:54;16.50;;;9.53;;
18170;SDS011;9210;48.358;10.902;2022-12-07T02:04:23;14.83;;;8.67;;
18170;SDS011;9210;48.358;10.902;2022-12-07T02:06:51;14.77;;;8.37;;
18170;SDS011;9210;48.358;10.902;2022-12-07T02:09:22;16.77;;;9.37;;
18170;SDS011;9210;48.358;10.902;2022-12-07T02:11:51;15.87;;;9.47;;
18170;SDS011;9210;48.358;10.902;2022-12-07T02:14:20;14.73;;;9.07;;
18170;SDS011;9210;48.358;10.902;2022-12-07T02:16:53;14.23;;;8.47;;
18170;SDS011;9210;48.358;10.902;2022-12-07T02:19:37;14.50;;;8.57;;
18170;SDS011;9210;48.358;10.902;2022-12-07T02:22:12;14.63;;;8.73;;
18170;SDS011;9210;48.358;10.902;2022-12-07T02:24:51;15.63;;;8.93;;
18170;SDS011;9210;48.358;10.902;2022-12-07T02:30:07;18.27;;;9.57;;
18170;SDS011;9210;48.358;10.902;2022-12-07T02:32:47;16.77;;;9.27;;
18170;SDS011;9210;48.358;10.902;2022-12-07T02:35:19;16.53;;;9.23;;
18170;SDS011;9210;48.358;10.902;2022-12-07T02:37:50;18.47;;;10.23;;
18170;SDS011;9210;48.358;10.902;2022-12-07T02:40:22;19.53;;;9.60;;
18170;SDS011;9210;48.358;10.902;2022-12-07T02:42:53;15.00;;;9.10;;
18170;SDS011;9210;48.358;10.902;2022-12-07T02:45:25;15.77;;;9.37;;
18170;SDS011;9210;48.358;10.902;2022-12-07T02:47:55;15.23;;;8.83;;
18170;SDS011;9210;48.358;10.902;2022-12-07T02:50:25;13.53;;;8.60;;
18170;SDS011;9210;48.358;10.902;2022-12-07T02:52:54;14.43;;;9.07;;
18170;SDS011;9210;48.358;10.902;2022-12-07T02:55:24;18.27;;;10.03;;
18170;SDS011;9210;48.358;10.902;2022-12-07T02:57:57;13.83;;;8.60;;
18170;SDS011;9210;48.358;10.902;2022-12-07T03:00:30;18.50;;;10.23;;
18170;SDS011;9210;48.358;10.902;2022-12-07T03:03:03;15.17;;;8.60;;
18170;SDS011;9210;48.358;10.902;2022-12-07T03:05:37;16.20;;;9.93;;
18170;SDS011;9210;48.358;10.902;2022-12-07T03:08:13;14.37;;;8.90;;
18170;SDS011;9210;48.358;10.902;2022-12-07T03:10:44;15.10;;;9.07;;
18170;SDS011;9210;48.358;10.902;2022-12-07T03:13:23;15.03;;;8.90;;
18170;SDS011;9210;48.358;10.902;2022-12-07T03:15:55;14.73;;;8.50;;
18170;SDS011;9210;48.358;10.902;2022-12-07T03:18:25;15.40;;;8.93;;
18170;SDS011;9210;48.358;10.902;2022-12-07T03:20:57;14.97;;;8.23;;
18170;SDS011;9210;48.358;10.902;2022-12-07T03:23:27;17.47;;;9.17;;
18170;SDS011;9210;48.358;10.902;2022-12-07T03:25:56;17.00;;;9.63;;
18170;SDS011;9210;48.358;10.902;2022-12-07T03:28:27;15.70;;;8.80;;
18170;SDS011;9210;48.358;10.902;2022-12-07T03:30:59;15.03;;;8.97;;
18170;SDS011;9210;48.358;10.902;2022-12-07T03:33:30;14.83;;;9.13;;
18170;SDS011;9210;48.358;10.902;2022-12-07T03:36:00;15.10;;;8.43;;
18170;SDS011;9210;48.358;10.902;2022-12-07T03:38:31;16.23;;;9.57;;
18170;SDS011;9210;48.358;10.902;2022-12-07T03:41:01;18.73;;;9.70;;
18170;SDS011;9210;48.358;10.902;2022-12-07T03:43:31;17.90;;;9.23;;
18170;SDS011;9210;48.358;10.902;2022-12-07T03:46:03;17.47;;;8.97;;
18170;SDS011;9210;48.358;10.902;2022-12-07T03:48:36;16.20;;;8.77;;
18170;SDS011;9210;48.358;10.902;2022-12-07T03:51:08;20.53;;;10.80;;
18170;SDS011;9210;48.358;10.902;2022-12-07T03:53:40;14.50;;;9.07;;
18170;SDS011;9210;48.358;10.902;2022-12-07T03:56:11;16.50;;;9.50;;
18170;SDS011;9210;48.358;10.902;2022-12-07T03:58:40;16.33;;;9.47;;
18170;SDS011;9210;48.358;10.902;2022-12-07T04:01:10;19.03;;;10.77;;
18170;SDS011;9210;48.358;10.902;2022-12-07T04:03:39;15.57;;;9.27;;
18170;SDS011;9210;48.358;10.902;2022-12-07T04:06:08;16.50;;;9.37;;
18170;SDS011;9210;48.358;10.902;2022-12-07T04:08:36;16.57;;;9.47;;
18170;SDS011;9210;48.358;10.902;2022-12-07T04:11:05;18.27;;;10.33;;
18170;SDS011;9210;48.358;10.902;2022-12-07T04:13:33;19.10;;;10.27;;
18170;SDS011;9210;48.358;10.902;2022-12-07T04:16:23;16.27;;;9.97;;
18170;SDS011;9210;48.358;10.902;2022-12-07T04:18:52;17.30;;;10.43;;
18170;SDS011;9210;48.358;10.902;2022-12-07T04:21:20;17.77;;;10.33;;
18170;SDS011;9210;48.358;10.902;2022-12-07T04:23:49;20.10;;;11.20;;
18170;SDS011;9210;48.358;10.902;2022-12-07T04:26:17;18.33;;;9.57;;
18170;SDS011;9210;48.358;10.902;2022-12-07T04:28:45;18.17;;;9.27;;
18170;SDS011;9210;48.358;10.902;2022-12-07T04:31:14;19.80;;;10.67;;
18170;SDS011;9210;48.358;10.902;2022-12-07T04:33:44;17.37;;;10.23;;
18170;SDS011;9210;48.358;10.902;2022-12-07T04:36:12;18.93;;;9.37;;
18170;SDS011;9210;48.358;10.902;2022-12-07T04:38:41;18.83;;;10.37;;
18170;SDS011;9210;48.358;10.902;2022-12-07T04:41:09;21.00;;;11.73;;
18170;SDS011;9210;48.358;10.902;2022-12-07T04:43:38;19.00;;;11.10;;
18170;SDS011;9210;48.358;10.902;2022-12-07T04:46:06;17.63;;;10.17;;
18170;SDS011;9210;48.358;10.902;2022-12-07T04:48:35;19.60;;;11.10;;
18170;SDS011;9210;48.358;10.902;2022-12-07T04:51:05;16.27;;;9.23;;
18170;SDS011;9210;48.358;10.902;2022-12-07T04:53:33;19.10;;;11.00;;
18170;SDS011;9210;48.358;10.902;2022-12-07T04:56:02;17.67;;;10.73;;
18170;SDS011;9210;48.358;10.902;2022-12-07T04:58:30;20.10;;;11.33;;
18170;SDS011;9210;48.358;10.902;2022-12-07T05:00:59;23.73;;;11.80;;
18170;SDS011;9210;48.358;10.902;2022-12-07T05:03:27;22.27;;;11.77;;
18170;SDS011;9210;48.358;10.902;2022-12-07T05:05:56;17.80;;;9.83;;
18170;SDS011;9210;48.358;10.902;2022-12-07T05:08:25;20.90;;;11.53;;
18170;SDS011;9210;48.358;10.902;2022-12-07T05:10:54;23.90;;;12.73;;
18170;SDS011;9210;48.358;10.902;2022-12-07T05:13:22;18.23;;;11.07;;
18170;SDS011;9210;48.358;10.902;2022-12-07T05:15:51;20.87;;;12.07;;
18170;SDS011;9210;48.358;10.902;2022-12-07T05:18:19;20.07;;;10.90;;
18170;SDS011;9210;48.358;10.902;2022-12-07T05:20:48;19.93;;;11.53;;
18170;SDS011;9210;48.358;10.902;2022-12-07T05:23:17;20.03;;;11.90;;
18170;SDS011;9210;48.358;10.902;2022-12-07T05:25:47;20.97;;;12.27;;
18170;SDS011;9210;48.358;10.902;2022-12-07T05:28:16;22.93;;;13.20;;
18170;SDS011;9210;48.358;10.902;2022-12-07T05:30:44;20.13;;;11.80;;
18170;SDS011;9210;48.358;10.902;2022-12-07T05:33:12;23.00;;;12.47;;
18170;SDS011;9210;48.358;10.902;2022-12-07T05:35:41;21.47;;;12.33;;
18170;SDS011;9210;48.358;10.902;2022-12-07T05:38:10;23.30;;;12.90;;
18170;SDS011;9210;48.358;10.902;2022-12-07T05:40:38;20.97;;;12.10;;
18170;SDS011;9210;48.358;10.902;2022-12-07T05:43:10;22.40;;;12.57;;
18170;SDS011;9210;48.358;10.902;2022-12-07T05:45:39;21.27;;;12.33;;
18170;SDS011;9210;48.358;10.902;2022-12-07T05:48:08;21.47;;;11.43;;
18170;SDS011;9210;48.358;10.902;2022-12-07T05:50:36;22.23;;;13.13;;
18170;SDS011;9210;48.358;10.902;2022-12-07T05:53:05;21.30;;;12.40;;
18170;SDS011;9210;48.358;10.902;2022-12-07T05:55:33;19.90;;;11.03;;
18170;SDS011;9210;48.358;10.902;2022-12-07T05:58:01;19.43;;;10.83;;
18170;SDS011;9210;48.358;10.902;2022-12-07T06:00:49;20.33;;;11.73;;
18170;SDS011;9210;48.358;10.902;2022-12-07T06:03:18;21.10;;;11.60;;
18170;SDS011;9210;48.358;10.902;2022-12-07T06:05:46;21.67;;;12.80;;
18170;SDS011;9210;48.358;10.902;2022-12-07T06:08:15;24.00;;;12.97;;
18170;SDS011;9210;48.358;10.902;2022-12-07T06:10:43;21.97;;;11.87;;
18170;SDS011;9210;48.358;10.902;2022-12-07T06:13:12;22.53;;;12.80;;
18170;SDS011;9210;48.358;10.902;2022-12-07T06:15:39;22.40;;;12.37;;
18170;SDS011;9210;48.358;10.902;2022-12-07T06:18:10;21.60;;;12.13;;
18170;SDS011;9210;48.358;10.902;2022-12-07T06:20:38;22.77;;;12.30;;
18170;SDS011;9210;48.358;10.902;2022-12-07T06:23:07;23.87;;;13.10;;
18170;SDS011;9210;48.358;10.902;2022-12-07T06:25:35;21.60;;;12.33;;
18170;SDS011;9210;48.358;10.902;2022-12-07T06:28:05;22.17;;;12.03;;
18170;SDS011;9210;48.358;10.902;2022-12-07T06:30:33;23.07;;;13.30;;
18170;SDS011;9210;48.358;10.902;2022-12-07T06:33:02;23.67;;;12.37;;
18170;SDS011;9210;48.358;10.902;2022-12-07T06:35:33;28.03;;;14.97;;
18170;SDS011;9210;48.358;10.902;2022-12-07T06:38:01;27.47;;;14.37;;
18170;SDS011;9210;48.358;10.902;2022-12-07T06:40:30;23.43;;;12.57;;
18170;SDS011;9210;48.358;10.902;2022-12-07T06:42:58;22.77;;;12.37;;
18170;SDS011;9210;48.358;10.902;2022-12-07T06:45:27;27.80;;;13.70;;
18170;SDS011;9210;48.358;10.902;2022-12-07T06:47:55;26.30;;;13.67;;
18170;SDS011;9210;48.358;10.902;2022-12-07T06:50:24;29.10;;;14.07;;
18170;SDS011;9210;48.358;10.902;2022-12-07T06:52:54;30.97;;;15.30;;
18170;SDS011;9210;48.358;10.902;2022-12-07T06:55:22;32.80;;;15.63;;
18170;SDS011;9210;48.358;10.902;2022-12-07T06:57:51;31.37;;;15.33;;
18170;SDS011;9210;48.358;10.902;2022-12-07T07:00:19;30.60;;;14.40;;
18170;SDS011;9210;48.358;10.902;2022-12-07T07:02:48;32.07;;;15.43;;
18170;SDS011;9210;48.358;10.902;2022-12-07T07:05:17;31.37;;;14.87;;
18170;SDS011;9210;48.358;10.902;2022-12-07T07:07:47;31.23;;;15.33;;
18170;SDS011;9210;48.358;10.902;2022-12-07T07:10:41;32.97;;;15.63;;
18170;SDS011;9210;48.358;10.902;2022-12-07T07:13:09;30.07;;;15.40;;
18170;SDS011;9210;48.358;10.902;2022-12-07T07:15:38;30.77;;;15.17;;
18170;SDS011;9210;48.358;10.902;2022-12-07T07:18:07;27.50;;;14.33;;
18170;SDS011;9210;48.358;10.902;2022-12-07T07:20:36;31.67;;;15.90;;
18170;SDS011;9210;48.358;10.902;2022-12-07T07:23:05;36.73;;;17.60;;
18170;SDS011;9210;48.358;10.902;2022-12-07T07:25:34;35.13;;;16.70;;
18170;SDS011;9210;48.358;10.902;2022-12-07T07:28:05;34.77;;;17.03;;
18170;SDS011;9210;48.358;10.902;2022-12-07T07:30:33;34.53;;;16.83;;
18170;SDS011;9210;48.358;10.902;2022-12-07T07:33:02;35.90;;;16.77;;
18170;SDS011;9210;48.358;10.902;2022-12-07T07:35:34;32.80;;;16.47;;
18170;SDS011;9210;48.358;10.902;2022-12-07T07:38:03;35.27;;;16.60;;
18170;SDS011;9210;48.358;10.902;2022-12-07T07:40:31;32.03;;;15.40;;
18170;SDS011;9210;48.358;10.902;2022-12-07T07:43:00;29.90;;;15.80;;
18170;SDS011;9210;48.358;10.902;2022-12-07T07:45:30;30.13;;;15.13;;
18170;SDS011;9210;48.358;10.902;2022-12-07T07:47:59;31.47;;;15.43;;
18170;SDS011;9210;48.358;10.902;2022-12-07T07:50:28;30.53;;;15.10;;
18170;SDS011;9210;48.358;10.902;2022-12-07T07:52:56;28.07;;;14.57;;
18170;SDS011;9210;48.358;10.902;2022-12-07T07:55:25;35.00;;;17.13;;
18170;SDS011;9210;48.358;10.902;2022-12-07T07:57:54;41.07;;;18.20;;
18170;SDS011;9210;48.358;10.902;2022-12-07T08:00:22;37.03;;;18.10;;
18170;SDS011;9210;48.358;10.902;2022-12-07T08:02:52;32.67;;;16.10;;
18170;SDS011;9210;48.358;10.902;2022-12-07T08:05:21;29.70;;;16.13;;
18170;SDS011;9210;48.358;10.902;2022-12-07T08:07:49;35.73;;;17.50;;
18170;SDS011;9210;48.358;10.902;2022-12-07T08:10:18;27.93;;;14.33;;
18170;SDS011;9210;48.358;10.902;2022-12-07T08:12:47;29.27;;;15.23;;
18170;SDS011;9210;48.358;10.902;2022-12-07T08:15:33;32.43;;;16.70;;
18170;SDS011;9210;48.358;10.902;2022-12-07T08:18:03;28.37;;;14.57;;
18170;SDS011;9210;48.358;10.902;2022-12-07T08:20:32;30.27;;;15.73;;
18170;SDS011;9210;48.358;10.902;2022-12-07T08:23:01;33.47;;;16.43;;
18170;SDS011;9210;48.358;10.902;2022-12-07T08:25:29;32.33;;;16.23;;
18170;SDS011;9210;48.358;10.902;2022-12-07T08:27:58;32.90;;;16.97;;
18170;SDS011;9210;48.358;10.902;2022-12-07T08:30:27;30.37;;;15.40;;
18170;SDS011;9210;48.358;10.902;2022-12-07T08:32:56;32.00;;;15.40;;
18170;SDS011;9210;48.358;10.902;2022-12-07T08:35:27;26.23;;;13.80;;
18170;SDS011;9210;48.358;10.902;2022-12-07T08:37:58;30.47;;;15.67;;
18170;SDS011;9210;48.358;10.902;2022-12-07T08:40:28;32.23;;;16.87;;
18170;SDS011;9210;48.358;10.902;2022-12-07T08:42:57;29.13;;;15.13;;
18170;SDS011;9210;48.358;10.902;2022-12-07T08:45:25;31.27;;;16.57;;
18170;SDS011;9210;48.358;10.902;2022-12-07T08:48:00;26.90;;;14.13;;
18170;SDS011;9210;48.358;10.902;2022-12-07T08:50:35;34.40;;;15.77;;
18170;SDS011;9210;48.358;10.902;2022-12-07T08:53:04;28.87;;;14.90;;
18170;SDS011;9210;48.358;10.902;2022-12-07T08:55:33;34.57;;;15.37;;
18170;SDS011;9210;48.358;10.902;2022-12-07T08:58:02;29.27;;;14.00;;
18170;SDS011;9210;48.358;10.902;2022-12-07T09:00:30;27.33;;;14.17;;
18170;SDS011;9210;48.358;10.902;2022-12-07T09:02:59;24.27;;;13.00;;
18170;SDS011;9210;48.358;10.902;2022-12-07T09:05:31;26.75;;;16.02;;
18170;SDS011;9210;48.358;10.902;2022-12-07T09:08:02;23.43;;;12.50;;
18170;SDS011;9210;48.358;10.902;2022-12-07T09:10:31;24.53;;;13.20;;
18170;SDS011;9210;48.358;10.902;2022-12-07T09:13:00;25.53;;;13.13;;
18170;SDS011;9210;48.358;10.902;2022-12-07T09:15:31;20.93;;;11.47;;
18170;SDS011;9210;48.358;10.902;2022-12-07T09:17:59;28.60;;;11.70;;
18170;SDS011;9210;48.358;10.902;2022-12-07T09:20:28;21.07;;;11.10;;
18170;SDS011;9210;48.358;10.902;2022-12-07T09:22:57;20.47;;;11.03;;
18170;SDS011;9210;48.358;10.902;2022-12-07T09:25:27;18.90;;;10.63;;
18170;SDS011;9210;48.358;10.902;2022-12-07T09:27:56;19.47;;;10.37;;
18170;SDS011;9210;48.358;10.902;2022-12-07T09:30:26;23.27;;;11.73;;
18170;SDS011;9210;48.358;10.902;2022-12-07T09:32:55;20.50;;;10.97;;
18170;SDS011;9210;48.358;10.902;2022-12-07T09:35:24;20.40;;;11.60;;
18170;SDS011;9210;48.358;10.902;2022-12-07T09:37:53;21.10;;;11.03;;
18170;SDS011;9210;48.358;10.902;2022-12-07T09:40:22;18.07;;;10.33;;
18170;SDS011;9210;48.358;10.902;2022-12-07T09:42:53;16.53;;;9.40;;
18170;SDS011;9210;48.358;10.902;2022-12-07T09:45:23;20.07;;;10.80;;
18170;SDS011;9210;48.358;10.902;2022-12-07T09:47:52;19.23;;;10.60;;
18170;SDS011;9210;48.358;10.902;2022-12-07T09:50:21;21.07;;;10.87;;
18170;SDS011;9210;48.358;10.902;2022-12-07T09:52:51;18.63;;;10.63;;
18170;SDS011;9210;48.358;10.902;2022-12-07T09:55:22;18.53;;;10.57;;
18170;SDS011;9210;48.358;10.902;2022-12-07T09:57:53;18.43;;;10.80;;
18170;SDS011;9210;48.358;10.902;2022-12-07T10:00:23;17.03;;;9.27;;
18170;SDS011;9210;48.358;10.902;2022-12-07T10:02:55;20.13;;;10.60;;
18170;SDS011;9210;48.358;10.902;2022-12-07T10:05:24;20.47;;;10.40;;
18170;SDS011;9210;48.358;10.902;2022-12-07T10:07:54;18.00;;;9.23;;
18170;SDS011;9210;48.358;10.902;2022-12-07T10:10:24;18.13;;;10.27;;
18170;SDS011;9210;48.358;10.902;2022-12-07T10:12:58;16.90;;;9.57;;
18170;SDS011;9210;48.358;10.902;2022-12-07T10:15:41;17.57;;;10.47;;
18170;SDS011;9210;48.358;10.902;2022-12-07T10:18:18;19.77;;;10.03;;
18170;SDS011;9210;48.358;10.902;2022-12-07T10:20:47;20.63;;;10.37;;
18170;SDS011;9210;48.358;10.902;2022-12-07T10:23:17;18.70;;;10.07;;
18170;SDS011;9210;48.358;10.902;2022-12-07T10:25:46;15.83;;;8.90;;
18170;SDS011;9210;48.358;10.902;2022-12-07T10:28:17;15.30;;;8.33;;
18170;SDS011;9210;48.358;10.902;2022-12-07T10:30:50;15.60;;;8.27;;
18170;SDS011;9210;48.358;10.902;2022-12-07T10:33:32;13.30;;;7.23;;
18170;SDS011;9210;48.358;10.902;2022-12-07T10:36:15;15.97;;;7.37;;
18170;SDS011;9210;48.358;10.902;2022-12-07T10:38:45;14.60;;;8.03;;
18170;SDS011;9210;48.358;10.902;2022-12-07T10:41:14;12.53;;;7.33;;
18170;SDS011;9210;48.358;10.902;2022-12-07T10:43:48;13.83;;;7.83;;
18170;SDS011;9210;48.358;10.902;2022-12-07T10:46:29;16.53;;;6.90;;
18170;SDS011;9210;48.358;10.902;2022-12-07T10:49:03;11.20;;;6.60;;
18170;SDS011;9210;48.358;10.902;2022-12-07T10:51:38;12.83;;;6.77;;
18170;SDS011;9210;48.358;10.902;2022-12-07T10:54:10;10.73;;;5.90;;
18170;SDS011;9210;48.358;10.902;2022-12-07T10:56:53;10.13;;;6.40;;
18170;SDS011;9210;48.358;10.902;2022-12-07T11:02:15;11.07;;;6.47;;
18170;SDS011;9210;48.358;10.902;2022-12-07T11:04:54;13.30;;;6.97;;
18170;SDS011;9210;48.358;10.902;2022-12-07T11:07:29;14.57;;;7.13;;
18170;SDS011;9210;48.358;10.902;2022-12-07T11:10:05;13.23;;;7.33;;
18170;SDS011;9210;48.358;10.902;2022-12-07T11:12:40;13.53;;;6.97;;
18170;SDS011;9210;48.358;10.902;2022-12-07T11:15:13;16.37;;;7.67;;
18170;SDS011;9210;48.358;10.902;2022-12-07T11:17:48;11.83;;;7.40;;
18170;SDS011;9210;48.358;10.902;2022-12-07T11:20:28;12.03;;;7.17;;
18170;SDS011;9210;48.358;10.902;2022-12-07T11:22:59;12.17;;;6.83;;
18170;SDS011;9210;48.358;10.902;2022-12-07T11:25:30;14.60;;;7.90;;
18170;SDS011;9210;48.358;10.902;2022-12-07T11:28:07;14.43;;;7.30;;
18170;SDS011;9210;48.358;10.902;2022-12-07T11:30:41;14.53;;;7.23;;
18170;SDS011;9210;48.358;10.902;2022-12-07T11:33:15;12.87;;;7.57;;
18170;SDS011;9210;48.358;10.902;2022-12-07T11:35:52;13.93;;;7.70;;
18170;SDS011;9210;48.358;10.902;2022-12-07T11:38:26;17.30;;;7.80;;
18170;SDS011;9210;48.358;10.902;2022-12-07T11:40:58;16.50;;;7.20;;
18170;SDS011;9210;48.358;10.902;2022-12-07T11:43:44;14.63;;;8.10;;
18170;SDS011;9210;48.358;10.902;2022-12-07T11:46:17;11.83;;;7.00;;
18170;SDS011;9210;48.358;10.902;2022-12-07T11:48:48;12.97;;;6.87;;
18170;SDS011;9210;48.358;10.902;2022-12-07T11:51:19;18.00;;;7.80;;
18170;SDS011;9210;48.358;10.902;2022-12-07T11:53:52;16.03;;;7.57;;
18170;SDS011;9210;48.358;10.902;2022-12-07T11:56:22;12.67;;;7.10;;
18170;SDS011;9210;48.358;10.902;2022-12-07T11:58:53;12.60;;;6.20;;
18170;SDS011;9210;48.358;10.902;2022-12-07T12:01:26;11.80;;;6.43;;
18170;SDS011;9210;48.358;10.902;2022-12-07T12:04:04;13.80;;;7.23;;
18170;SDS011;9210;48.358;10.902;2022-12-07T12:06:33;12.27;;;6.60;;
18170;SDS011;9210;48.358;10.902;2022-12-07T12:09:04;12.37;;;6.60;;
18170;SDS011;9210;48.358;10.902;2022-12-07T12:12:10;14.73;;;6.77;;
18170;SDS011;9210;48.358;10.902;2022-12-07T12:15:09;14.13;;;7.00;;
18170;SDS011;9210;48.358;10.902;2022-12-07T12:17:49;14.47;;;7.10;;
18170;SDS011;9210;48.358;10.902;2022-12-07T12:20:21;12.57;;;6.53;;
18170;SDS011;9210;48.358;10.902;2022-12-07T12:22:53;15.10;;;6.60;;
18170;SDS011;9210;48.358;10.902;2022-12-07T12:25:23;17.90;;;6.93;;
18170;SDS011;9210;48.358;10.902;2022-12-07T12:27:53;13.23;;;6.80;;
18170;SDS011;9210;48.358;10.902;2022-12-07T12:30:26;13.00;;;6.10;;
18170;SDS011;9210;48.358;10.902;2022-12-07T12:33:01;12.83;;;6.77;;
18170;SDS011;9210;48.358;10.902;2022-12-07T12:35:32;14.33;;;7.03;;
18170;SDS011;9210;48.358;10.902;2022-12-07T12:38:21;13.57;;;6.67;;
18170;SDS011;9210;48.358;10.902;2022-12-07T12:40:59;12.83;;;6.93;;
18170;SDS011;9210;48.358;10.902;2022-12-07T12:43:44;12.97;;;7.13;;
18170;SDS011;9210;48.358;10.902;2022-12-07T12:55:00;11.23;;;6.23;;
18170;SDS011;9210;48.358;10.902;2022-12-07T12:57:31;10.93;;;6.20;;
18170;SDS011;9210;48.358;10.902;2022-12-07T13:00:14;11.30;;;5.47;;
18170;SDS011;9210;48.358;10.902;2022-12-07T13:02:47;11.80;;;6.30;;
18170;SDS011;9210;48.358;10.902;2022-12-07T13:05:18;11.23;;;5.90;;
18170;SDS011;9210;48.358;10.902;2022-12-07T13:07:52;13.20;;;6.40;;
18170;SDS011;9210;48.358;10.902;2022-12-07T13:10:24;10.97;;;6.30;;
18170;SDS011;9210;48.358;10.902;2022-12-07T13:12:55;10.63;;;5.97;;
18170;SDS011;9210;48.358;10.902;2022-12-07T13:15:31;13.43;;;6.40;;
18170;SDS011;9210;48.358;10.902;2022-12-07T13:18:01;11.53;;;6.13;;
18170;SDS011;9210;48.358;10.902;2022-12-07T13:20:40;10.90;;;5.77;;
18170;SDS011;9210;48.358;10.902;2022-12-07T13:23:10;12.40;;;6.03;;
18170;SDS011;9210;48.358;10.902;2022-12-07T13:25:44;9.90;;;5.43;;
18170;SDS011;9210;48.358;10.902;2022-12-07T13:28:17;10.33;;;5.37;;
18170;SDS011;9210;48.358;10.902;2022-12-07T13:33:37;11.63;;;5.53;;
18170;SDS011;9210;48.358;10.902;2022-12-07T13:36:08;9.93;;;5.00;;
18170;SDS011;9210;48.358;10.902;2022-12-07T13:38:47;10.30;;;5.23;;
18170;SDS011;9210;48.358;10.902;2022-12-07T13:41:19;14.20;;;5.17;;
18170;SDS011;9210;48.358;10.902;2022-12-07T13:43:50;9.73;;;4.90;;
18170;SDS011;9210;48.358;10.902;2022-12-07T13:46:19;8.77;;;5.03;;
18170;SDS011;9210;48.358;10.902;2022-12-07T13:48:56;12.07;;;5.33;;
18170;SDS011;9210;48.358;10.902;2022-12-07T13:51:38;11.90;;;5.20;;
18170;SDS011;9210;48.358;10.902;2022-12-07T13:54:09;8.73;;;4.83;;
18170;SDS011;9210;48.358;10.902;2022-12-07T13:56:51;10.90;;;5.10;;
18170;SDS011;9210;48.358;10.902;2022-12-07T13:59:22;8.97;;;5.00;;
18170;SDS011;9210;48.358;10.902;2022-12-07T14:01:54;7.53;;;4.60;;
18170;SDS011;9210;48.358;10.902;2022-12-07T14:04:32;9.33;;;4.87;;
18170;SDS011;9210;48.358;10.902;2022-12-07T14:09:56;8.67;;;4.87;;
18170;SDS011;9210;48.358;10.902;2022-12-07T14:12:28;9.97;;;5.00;;
18170;SDS011;9210;48.358;10.902;2022-12-07T14:14:58;10.00;;;5.07;;
18170;SDS011;9210;48.358;10.902;2022-12-07T14:17:29;9.67;;;5.43;;
18170;SDS011;9210;48.358;10.902;2022-12-07T14:19:59;12.17;;;5.83;;
18170;SDS011;9210;48.358;10.902;2022-12-07T14:22:29;11.10;;;5.30;;
18170;SDS011;9210;48.358;10.902;2022-12-07T14:24:59;10.30;;;5.20;;
18170;SDS011;9210;48.358;10.902;2022-12-07T14:27:32;9.67;;;5.10;;
18170;SDS011;9210;48.358;10.902;2022-12-07T14:30:03;11.97;;;5.63;;
18170;SDS011;9210;48.358;10.902;2022-12-07T14:32:32;14.00;;;5.67;;
18170;SDS011;9210;48.358;10.902;2022-12-07T14:35:08;11.80;;;5.70;;
18170;SDS011;9210;48.358;10.902;2022-12-07T14:37:39;9.63;;;4.97;;
18170;SDS011;9210;48.358;10.902;2022-12-07T14:40:12;9.77;;;5.20;;
18170;SDS011;9210;48.358;10.902;2022-12-07T14:42:43;11.67;;;5.37;;
18170;SDS011;9210;48.358;10.902;2022-12-07T14:45:13;12.43;;;5.57;;
18170;SDS011;9210;48.358;10.902;2022-12-07T14:47:44;13.37;;;6.13;;
18170;SDS011;9210;48.358;10.902;2022-12-07T14:50:37;10.00;;;5.03;;
18170;SDS011;9210;48.358;10.902;2022-12-07T14:53:27;11.93;;;5.60;;
18170;SDS011;9210;48.358;10.902;2022-12-07T14:55:58;12.47;;;5.77;;
18170;SDS011;9210;48.358;10.902;2022-12-07T14:58:29;12.60;;;5.63;;
18170;SDS011;9210;48.358;10.902;2022-12-07T15:01:00;11.63;;;5.90;;
18170;SDS011;9210;48.358;10.902;2022-12-07T15:03:29;11.17;;;5.43;;
18170;SDS011;9210;48.358;10.902;2022-12-07T15:05:57;8.47;;;4.83;;
18170;SDS011;9210;48.358;10.902;2022-12-07T15:08:26;13.93;;;6.60;;
18170;SDS011;9210;48.358;10.902;2022-12-07T15:10:55;14.23;;;6.90;;
18170;SDS011;9210;48.358;10.902;2022-12-07T15:13:23;12.97;;;6.53;;
18170;SDS011;9210;48.358;10.902;2022-12-07T15:16:16;13.20;;;6.53;;
18170;SDS011;9210;48.358;10.902;2022-12-07T15:18:46;11.57;;;5.97;;